sensor_id;sensor_type;location;lat;lon;timestamp;P1;durP1;ratioP1;P2;durP2;ratioP2
38111;SDS011;64011;56.312;44.048;2023-02-15T00:01:18;40.33;;;18.90;;
38111;SDS011;64011;56.312;44.048;2023-02-15T00:03:22;37.40;;;18.67;;
38111;SDS011;64011;56.312;44.048;2023-02-15T00:05:22;36.70;;;17.70;;
38111;SDS011;64011;56.312;44.048;2023-02-15T00:07:23;40.88;;;19.65;;
38111;SDS011;64011;56.312;44.048;2023-02-15T00:09:24;39.40;;;19.60;;
38111;SDS011;64011;56.312;44.048;2023-02-15T00:11:25;39.35;;;19.02;;
38111;SDS011;64011;56.312;44.048;2023-02-15T00:13:26;38.47;;;17.95;;
38111;SDS011;64011;56.312;44.048;2023-02-15T00:15:27;41.50;;;18.63;;
38111;SDS011;64011;56.312;44.048;2023-02-15T00:17:28;37.40;;;18.50;;
38111;SDS011;64011;56.312;44.048;2023-02-15T00:19:30;36.22;;;16.98;;
38111;SDS011;64011;56.312;44.048;2023-02-15T00:21:31;36.67;;;17.77;;
38111;SDS011;64011;56.312;44.048;2023-02-15T00:23:33;36.63;;;18.45;;
38111;SDS011;64011;56.312;44.048;2023-02-15T00:25:34;37.80;;;18.10;;
38111;SDS011;64011;56.312;44.048;2023-02-15T00:27:34;39.65;;;17.92;;
38111;SDS011;64011;56.312;44.048;2023-02-15T00:29:35;38.88;;;17.90;;
38111;SDS011;64011;56.312;44.048;2023-02-15T00:31:36;35.67;;;17.77;;
38111;SDS011;64011;56.312;44.048;2023-02-15T00:33:37;36.55;;;17.65;;
38111;SDS011;64011;56.312;44.048;2023-02-15T00:35:40;37.05;;;17.95;;
38111;SDS011;64011;56.312;44.048;2023-02-15T00:37:41;37.60;;;18.65;;
38111;SDS011;64011;56.312;44.048;2023-02-15T00:39:41;37.22;;;17.38;;
38111;SDS011;64011;56.312;44.048;2023-02-15T00:41:42;35.15;;;17.27;;
38111;SDS011;64011;56.312;44.048;2023-02-15T00:43:44;36.55;;;17.58;;
38111;SDS011;64011;56.312;44.048;2023-02-15T00:45:45;37.95;;;17.55;;
38111;SDS011;64011;56.312;44.048;2023-02-15T00:47:46;33.83;;;17.05;;
38111;SDS011;64011;56.312;44.048;2023-02-15T00:49:47;38.03;;;17.98;;
38111;SDS011;64011;56.312;44.048;2023-02-15T00:51:49;35.97;;;17.08;;
38111;SDS011;64011;56.312;44.048;2023-02-15T00:53:50;37.15;;;18.38;;
38111;SDS011;64011;56.312;44.048;2023-02-15T00:55:50;37.50;;;17.77;;
38111;SDS011;64011;56.312;44.048;2023-02-15T00:57:51;36.10;;;17.40;;
38111;SDS011;64011;56.312;44.048;2023-02-15T00:59:52;37.40;;;18.17;;
38111;SDS011;64011;56.312;44.048;2023-02-15T01:01:52;36.90;;;16.88;;
38111;SDS011;64011;56.312;44.048;2023-02-15T01:03:53;34.67;;;16.73;;
38111;SDS011;64011;56.312;44.048;2023-02-15T01:05:54;35.20;;;16.17;;
38111;SDS011;64011;56.312;44.048;2023-02-15T01:07:56;36.13;;;16.63;;
38111;SDS011;64011;56.312;44.048;2023-02-15T01:09:57;35.15;;;16.60;;
38111;SDS011;64011;56.312;44.048;2023-02-15T01:11:57;34.83;;;16.27;;
38111;SDS011;64011;56.312;44.048;2023-02-15T01:13:58;38.70;;;17.15;;
38111;SDS011;64011;56.312;44.048;2023-02-15T01:15:59;35.75;;;17.10;;
38111;SDS011;64011;56.312;44.048;2023-02-15T01:18:00;37.15;;;17.17;;
38111;SDS011;64011;56.312;44.048;2023-02-15T01:20:01;37.63;;;17.98;;
38111;SDS011;64011;56.312;44.048;2023-02-15T01:22:01;36.55;;;16.92;;
38111;SDS011;64011;56.312;44.048;2023-02-15T01:24:04;36.28;;;18.00;;
38111;SDS011;64011;56.312;44.048;2023-02-15T01:26:05;35.75;;;17.00;;
38111;SDS011;64011;56.312;44.048;2023-02-15T01:28:05;32.47;;;16.50;;
38111;SDS011;64011;56.312;44.048;2023-02-15T01:30:07;35.08;;;16.35;;
38111;SDS011;64011;56.312;44.048;2023-02-15T01:32:08;36.05;;;16.63;;
38111;SDS011;64011;56.312;44.048;2023-02-15T01:34:09;36.90;;;17.02;;
38111;SDS011;64011;56.312;44.048;2023-02-15T01:36:10;38.15;;;17.30;;
38111;SDS011;64011;56.312;44.048;2023-02-15T01:38:10;35.40;;;17.20;;
38111;SDS011;64011;56.312;44.048;2023-02-15T01:40:14;35.60;;;17.15;;
38111;SDS011;64011;56.312;44.048;2023-02-15T01:42:20;39.92;;;18.08;;
38111;SDS011;64011;56.312;44.048;2023-02-15T01:46:47;34.08;;;17.05;;
38111;SDS011;64011;56.312;44.048;2023-02-15T01:48:54;34.42;;;17.00;;
38111;SDS011;64011;56.312;44.048;2023-02-15T01:50:59;39.35;;;18.38;;
38111;SDS011;64011;56.312;44.048;2023-02-15T01:53:03;38.30;;;17.27;;
38111;SDS011;64011;56.312;44.048;2023-02-15T01:55:07;34.17;;;16.65;;
38111;SDS011;64011;56.312;44.048;2023-02-15T01:57:10;36.65;;;18.10;;
38111;SDS011;64011;56.312;44.048;2023-02-15T01:59:14;34.70;;;16.85;;
38111;SDS011;64011;56.312;44.048;2023-02-15T02:01:17;34.75;;;17.02;;
38111;SDS011;64011;56.312;44.048;2023-02-15T02:03:18;32.92;;;15.90;;
38111;SDS011;64011;56.312;44.048;2023-02-15T02:05:27;33.30;;;15.73;;
38111;SDS011;64011;56.312;44.048;2023-02-15T02:07:29;34.03;;;15.90;;
38111;SDS011;64011;56.312;44.048;2023-02-15T02:09:32;31.50;;;15.45;;
38111;SDS011;64011;56.312;44.048;2023-02-15T02:11:33;37.22;;;17.20;;
38111;SDS011;64011;56.312;44.048;2023-02-15T02:13:36;35.53;;;16.60;;
38111;SDS011;64011;56.312;44.048;2023-02-15T02:15:58;33.97;;;15.65;;
38111;SDS011;64011;56.312;44.048;2023-02-15T02:18:03;31.63;;;14.55;;
38111;SDS011;64011;56.312;44.048;2023-02-15T02:20:20;34.40;;;16.58;;
38111;SDS011;64011;56.312;44.048;2023-02-15T02:23:00;32.50;;;15.55;;
38111;SDS011;64011;56.312;44.048;2023-02-15T02:27:52;34.25;;;15.18;;
38111;SDS011;64011;56.312;44.048;2023-02-15T02:35:00;34.33;;;16.02;;
38111;SDS011;64011;56.312;44.048;2023-02-15T02:37:07;33.60;;;16.45;;
38111;SDS011;64011;56.312;44.048;2023-02-15T02:39:18;35.35;;;16.05;;
38111;SDS011;64011;56.312;44.048;2023-02-15T02:41:26;35.70;;;15.80;;
38111;SDS011;64011;56.312;44.048;2023-02-15T02:43:33;34.05;;;15.60;;
38111;SDS011;64011;56.312;44.048;2023-02-15T02:45:37;32.30;;;15.80;;
38111;SDS011;64011;56.312;44.048;2023-02-15T02:47:41;35.42;;;15.07;;
38111;SDS011;64011;56.312;44.048;2023-02-15T02:49:45;33.45;;;15.32;;
38111;SDS011;64011;56.312;44.048;2023-02-15T02:51:57;32.83;;;15.45;;
38111;SDS011;64011;56.312;44.048;2023-02-15T02:53:59;31.17;;;14.90;;
38111;SDS011;64011;56.312;44.048;2023-02-15T02:56:03;34.28;;;15.80;;
38111;SDS011;64011;56.312;44.048;2023-02-15T02:58:08;33.42;;;15.27;;
38111;SDS011;64011;56.312;44.048;2023-02-15T03:00:11;35.30;;;16.42;;
38111;SDS011;64011;56.312;44.048;2023-02-15T03:02:13;32.95;;;14.80;;
38111;SDS011;64011;56.312;44.048;2023-02-15T03:04:17;29.27;;;13.65;;
38111;SDS011;64011;56.312;44.048;2023-02-15T03:06:23;34.88;;;15.50;;
38111;SDS011;64011;56.312;44.048;2023-02-15T03:08:26;32.25;;;15.05;;
38111;SDS011;64011;56.312;44.048;2023-02-15T03:10:30;30.52;;;15.45;;
38111;SDS011;64011;56.312;44.048;2023-02-15T03:12:32;35.00;;;16.15;;
38111;SDS011;64011;56.312;44.048;2023-02-15T03:14:35;31.83;;;14.68;;
38111;SDS011;64011;56.312;44.048;2023-02-15T03:16:36;31.30;;;15.73;;
38111;SDS011;64011;56.312;44.048;2023-02-15T03:18:39;33.47;;;14.85;;
38111;SDS011;64011;56.312;44.048;2023-02-15T03:20:44;31.98;;;14.98;;
38111;SDS011;64011;56.312;44.048;2023-02-15T03:22:48;33.63;;;16.35;;
38111;SDS011;64011;56.312;44.048;2023-02-15T03:24:53;32.97;;;15.77;;
38111;SDS011;64011;56.312;44.048;2023-02-15T03:26:57;31.30;;;15.40;;
38111;SDS011;64011;56.312;44.048;2023-02-15T03:28:57;35.95;;;15.48;;
38111;SDS011;64011;56.312;44.048;2023-02-15T03:31:00;32.78;;;15.27;;
38111;SDS011;64011;56.312;44.048;2023-02-15T03:33:03;34.85;;;15.15;;
38111;SDS011;64011;56.312;44.048;2023-02-15T03:35:06;36.30;;;16.13;;
38111;SDS011;64011;56.312;44.048;2023-02-15T03:37:09;32.42;;;14.90;;
38111;SDS011;64011;56.312;44.048;2023-02-15T03:39:15;31.05;;;14.85;;
38111;SDS011;64011;56.312;44.048;2023-02-15T03:41:19;33.28;;;15.18;;
38111;SDS011;64011;56.312;44.048;2023-02-15T03:43:21;31.98;;;15.13;;
38111;SDS011;64011;56.312;44.048;2023-02-15T03:45:27;33.03;;;15.52;;
38111;SDS011;64011;56.312;44.048;2023-02-15T03:47:30;34.03;;;15.35;;
38111;SDS011;64011;56.312;44.048;2023-02-15T03:49:36;31.58;;;15.35;;
38111;SDS011;64011;56.312;44.048;2023-02-15T03:51:41;30.27;;;14.52;;
38111;SDS011;64011;56.312;44.048;2023-02-15T03:53:43;31.15;;;14.52;;
38111;SDS011;64011;56.312;44.048;2023-02-15T03:55:47;29.27;;;14.35;;
38111;SDS011;64011;56.312;44.048;2023-02-15T03:57:48;33.20;;;15.35;;
38111;SDS011;64011;56.312;44.048;2023-02-15T03:59:49;32.95;;;15.75;;
38111;SDS011;64011;56.312;44.048;2023-02-15T04:01:54;33.33;;;16.02;;
38111;SDS011;64011;56.312;44.048;2023-02-15T04:04:01;33.35;;;15.55;;
38111;SDS011;64011;56.312;44.048;2023-02-15T04:06:06;32.72;;;14.82;;
38111;SDS011;64011;56.312;44.048;2023-02-15T04:08:07;33.85;;;15.95;;
38111;SDS011;64011;56.312;44.048;2023-02-15T04:10:08;31.42;;;14.98;;
38111;SDS011;64011;56.312;44.048;2023-02-15T04:12:11;32.28;;;15.52;;
38111;SDS011;64011;56.312;44.048;2023-02-15T04:14:12;33.95;;;15.20;;
38111;SDS011;64011;56.312;44.048;2023-02-15T04:16:13;30.92;;;15.02;;
38111;SDS011;64011;56.312;44.048;2023-02-15T04:18:14;36.42;;;15.13;;
38111;SDS011;64011;56.312;44.048;2023-02-15T04:20:15;34.15;;;15.55;;
38111;SDS011;64011;56.312;44.048;2023-02-15T04:22:15;31.95;;;15.77;;
38111;SDS011;64011;56.312;44.048;2023-02-15T04:24:16;35.55;;;16.77;;
38111;SDS011;64011;56.312;44.048;2023-02-15T04:26:19;32.90;;;14.95;;
38111;SDS011;64011;56.312;44.048;2023-02-15T04:28:21;36.97;;;15.93;;
38111;SDS011;64011;56.312;44.048;2023-02-15T04:30:23;33.65;;;15.95;;
38111;SDS011;64011;56.312;44.048;2023-02-15T04:32:24;32.13;;;16.10;;
38111;SDS011;64011;56.312;44.048;2023-02-15T04:34:25;31.90;;;15.05;;
38111;SDS011;64011;56.312;44.048;2023-02-15T04:36:25;34.45;;;16.23;;
38111;SDS011;64011;56.312;44.048;2023-02-15T04:38:26;35.65;;;15.63;;
38111;SDS011;64011;56.312;44.048;2023-02-15T04:40:27;38.65;;;15.75;;
38111;SDS011;64011;56.312;44.048;2023-02-15T04:42:28;32.05;;;16.02;;
38111;SDS011;64011;56.312;44.048;2023-02-15T04:44:30;34.08;;;16.48;;
38111;SDS011;64011;56.312;44.048;2023-02-15T04:46:31;33.30;;;15.68;;
38111;SDS011;64011;56.312;44.048;2023-02-15T04:48:31;34.25;;;16.05;;
38111;SDS011;64011;56.312;44.048;2023-02-15T04:50:32;36.83;;;16.15;;
38111;SDS011;64011;56.312;44.048;2023-02-15T04:52:33;37.03;;;16.33;;
38111;SDS011;64011;56.312;44.048;2023-02-15T04:54:34;37.17;;;15.70;;
38111;SDS011;64011;56.312;44.048;2023-02-15T04:56:35;34.38;;;16.13;;
38111;SDS011;64011;56.312;44.048;2023-02-15T04:58:35;32.28;;;15.52;;
38111;SDS011;64011;56.312;44.048;2023-02-15T05:00:37;35.63;;;16.17;;
38111;SDS011;64011;56.312;44.048;2023-02-15T05:02:38;32.63;;;14.57;;
38111;SDS011;64011;56.312;44.048;2023-02-15T05:04:39;33.92;;;15.38;;
38111;SDS011;64011;56.312;44.048;2023-02-15T05:06:40;32.13;;;15.23;;
38111;SDS011;64011;56.312;44.048;2023-02-15T05:08:41;31.25;;;14.27;;
38111;SDS011;64011;56.312;44.048;2023-02-15T05:10:41;35.17;;;16.38;;
38111;SDS011;64011;56.312;44.048;2023-02-15T05:12:42;31.45;;;15.30;;
38111;SDS011;64011;56.312;44.048;2023-02-15T05:14:43;35.95;;;15.73;;
38111;SDS011;64011;56.312;44.048;2023-02-15T05:16:45;32.35;;;14.80;;
38111;SDS011;64011;56.312;44.048;2023-02-15T05:18:46;31.20;;;15.27;;
38111;SDS011;64011;56.312;44.048;2023-02-15T05:20:47;36.20;;;15.45;;
38111;SDS011;64011;56.312;44.048;2023-02-15T05:22:48;32.67;;;15.13;;
38111;SDS011;64011;56.312;44.048;2023-02-15T05:24:48;33.30;;;15.65;;
38111;SDS011;64011;56.312;44.048;2023-02-15T05:26:49;33.78;;;15.27;;
38111;SDS011;64011;56.312;44.048;2023-02-15T05:28:50;35.25;;;16.20;;
38111;SDS011;64011;56.312;44.048;2023-02-15T05:30:51;32.58;;;15.68;;
38111;SDS011;64011;56.312;44.048;2023-02-15T05:33:02;34.63;;;15.35;;
38111;SDS011;64011;56.312;44.048;2023-02-15T05:35:03;33.67;;;15.80;;
38111;SDS011;64011;56.312;44.048;2023-02-15T05:37:04;31.70;;;16.02;;
38111;SDS011;64011;56.312;44.048;2023-02-15T05:39:05;30.70;;;15.27;;
38111;SDS011;64011;56.312;44.048;2023-02-15T05:41:06;34.00;;;16.45;;
38111;SDS011;64011;56.312;44.048;2023-02-15T05:43:07;34.50;;;15.35;;
38111;SDS011;64011;56.312;44.048;2023-02-15T05:45:08;32.17;;;15.02;;
38111;SDS011;64011;56.312;44.048;2023-02-15T05:47:09;32.08;;;15.55;;
38111;SDS011;64011;56.312;44.048;2023-02-15T05:49:11;32.75;;;15.23;;
38111;SDS011;64011;56.312;44.048;2023-02-15T05:51:12;31.52;;;15.52;;
38111;SDS011;64011;56.312;44.048;2023-02-15T05:53:13;34.22;;;16.15;;
38111;SDS011;64011;56.312;44.048;2023-02-15T05:55:14;32.47;;;16.35;;
38111;SDS011;64011;56.312;44.048;2023-02-15T05:57:15;31.98;;;15.65;;
38111;SDS011;64011;56.312;44.048;2023-02-15T05:59:15;34.03;;;14.68;;
38111;SDS011;64011;56.312;44.048;2023-02-15T06:01:17;32.80;;;15.98;;
38111;SDS011;64011;56.312;44.048;2023-02-15T06:03:18;29.05;;;13.57;;
38111;SDS011;64011;56.312;44.048;2023-02-15T06:05:21;27.10;;;13.52;;
38111;SDS011;64011;56.312;44.048;2023-02-15T06:07:22;29.77;;;14.63;;
38111;SDS011;64011;56.312;44.048;2023-02-15T06:09:23;27.27;;;12.98;;
38111;SDS011;64011;56.312;44.048;2023-02-15T06:11:24;26.10;;;13.35;;
38111;SDS011;64011;56.312;44.048;2023-02-15T06:13:25;27.98;;;13.30;;
38111;SDS011;64011;56.312;44.048;2023-02-15T06:15:25;27.15;;;13.50;;
38111;SDS011;64011;56.312;44.048;2023-02-15T06:17:26;28.05;;;13.30;;
38111;SDS011;64011;56.312;44.048;2023-02-15T06:19:27;27.02;;;12.82;;
38111;SDS011;64011;56.312;44.048;2023-02-15T06:21:29;26.00;;;12.25;;
38111;SDS011;64011;56.312;44.048;2023-02-15T06:23:30;27.02;;;13.02;;
38111;SDS011;64011;56.312;44.048;2023-02-15T06:25:31;26.70;;;12.40;;
38111;SDS011;64011;56.312;44.048;2023-02-15T06:27:32;26.63;;;13.35;;
38111;SDS011;64011;56.312;44.048;2023-02-15T06:29:32;27.83;;;13.20;;
38111;SDS011;64011;56.312;44.048;2023-02-15T06:31:33;26.15;;;12.52;;
38111;SDS011;64011;56.312;44.048;2023-02-15T06:33:34;23.40;;;11.88;;
38111;SDS011;64011;56.312;44.048;2023-02-15T06:35:35;25.33;;;11.85;;
38111;SDS011;64011;56.312;44.048;2023-02-15T06:37:37;26.60;;;11.88;;
38111;SDS011;64011;56.312;44.048;2023-02-15T06:39:38;24.40;;;12.48;;
38111;SDS011;64011;56.312;44.048;2023-02-15T06:41:38;25.63;;;12.70;;
38111;SDS011;64011;56.312;44.048;2023-02-15T06:43:39;24.88;;;12.05;;
38111;SDS011;64011;56.312;44.048;2023-02-15T06:45:40;27.10;;;13.20;;
38111;SDS011;64011;56.312;44.048;2023-02-15T06:47:41;27.33;;;13.07;;
38111;SDS011;64011;56.312;44.048;2023-02-15T06:49:42;25.52;;;13.40;;
38111;SDS011;64011;56.312;44.048;2023-02-15T06:51:43;26.13;;;13.70;;
38111;SDS011;64011;56.312;44.048;2023-02-15T06:53:45;25.70;;;12.95;;
38111;SDS011;64011;56.312;44.048;2023-02-15T06:55:45;29.00;;;15.10;;
38111;SDS011;64011;56.312;44.048;2023-02-15T06:57:46;26.88;;;14.90;;
38111;SDS011;64011;56.312;44.048;2023-02-15T06:59:47;26.85;;;14.35;;
38111;SDS011;64011;56.312;44.048;2023-02-15T07:01:48;28.17;;;14.18;;
38111;SDS011;64011;56.312;44.048;2023-02-15T07:03:49;28.13;;;15.07;;
38111;SDS011;64011;56.312;44.048;2023-02-15T07:05:53;27.08;;;14.35;;
38111;SDS011;64011;56.312;44.048;2023-02-15T07:07:54;25.80;;;13.73;;
38111;SDS011;64011;56.312;44.048;2023-02-15T07:09:56;31.25;;;15.07;;
38111;SDS011;64011;56.312;44.048;2023-02-15T07:11:57;25.52;;;13.15;;
38111;SDS011;64011;56.312;44.048;2023-02-15T07:13:58;24.67;;;12.90;;
38111;SDS011;64011;56.312;44.048;2023-02-15T07:15:59;26.55;;;14.60;;
38111;SDS011;64011;56.312;44.048;2023-02-15T07:17:59;28.23;;;13.73;;
38111;SDS011;64011;56.312;44.048;2023-02-15T07:20:00;27.48;;;14.00;;
38111;SDS011;64011;56.312;44.048;2023-02-15T07:22:01;26.52;;;14.27;;
38111;SDS011;64011;56.312;44.048;2023-02-15T07:24:02;27.98;;;14.57;;
38111;SDS011;64011;56.312;44.048;2023-02-15T07:26:04;24.92;;;14.77;;
38111;SDS011;64011;56.312;44.048;2023-02-15T07:28:06;26.67;;;14.38;;
38111;SDS011;64011;56.312;44.048;2023-02-15T07:30:08;25.98;;;13.48;;
38111;SDS011;64011;56.312;44.048;2023-02-15T07:32:10;27.10;;;12.80;;
38111;SDS011;64011;56.312;44.048;2023-02-15T07:34:11;27.45;;;14.27;;
38111;SDS011;64011;56.312;44.048;2023-02-15T07:36:12;28.20;;;13.70;;
38111;SDS011;64011;56.312;44.048;2023-02-15T07:38:12;25.70;;;13.30;;
38111;SDS011;64011;56.312;44.048;2023-02-15T07:40:13;25.20;;;13.63;;
38111;SDS011;64011;56.312;44.048;2023-02-15T07:42:15;27.33;;;13.65;;
38111;SDS011;64011;56.312;44.048;2023-02-15T07:44:16;26.80;;;13.60;;
38111;SDS011;64011;56.312;44.048;2023-02-15T07:46:17;25.92;;;13.70;;
38111;SDS011;64011;56.312;44.048;2023-02-15T07:48:18;26.05;;;13.50;;
38111;SDS011;64011;56.312;44.048;2023-02-15T07:50:19;24.27;;;12.00;;
38111;SDS011;64011;56.312;44.048;2023-02-15T07:52:19;24.65;;;12.70;;
38111;SDS011;64011;56.312;44.048;2023-02-15T07:54:20;23.45;;;12.02;;
38111;SDS011;64011;56.312;44.048;2023-02-15T07:56:21;24.75;;;12.75;;
38111;SDS011;64011;56.312;44.048;2023-02-15T07:58:23;27.38;;;13.52;;
38111;SDS011;64011;56.312;44.048;2023-02-15T08:00:24;24.10;;;12.85;;
38111;SDS011;64011;56.312;44.048;2023-02-15T08:02:24;24.25;;;12.75;;
38111;SDS011;64011;56.312;44.048;2023-02-15T08:04:25;23.20;;;13.23;;
38111;SDS011;64011;56.312;44.048;2023-02-15T08:06:27;24.80;;;12.48;;
38111;SDS011;64011;56.312;44.048;2023-02-15T08:08:28;22.65;;;11.98;;
38111;SDS011;64011;56.312;44.048;2023-02-15T08:10:29;23.50;;;12.23;;
38111;SDS011;64011;56.312;44.048;2023-02-15T08:12:30;22.17;;;12.55;;
38111;SDS011;64011;56.312;44.048;2023-02-15T08:14:32;22.48;;;11.68;;
38111;SDS011;64011;56.312;44.048;2023-02-15T08:16:34;22.05;;;11.07;;
38111;SDS011;64011;56.312;44.048;2023-02-15T08:18:36;21.10;;;11.38;;
38111;SDS011;64011;56.312;44.048;2023-02-15T08:20:37;20.90;;;11.13;;
38111;SDS011;64011;56.312;44.048;2023-02-15T08:22:37;19.58;;;10.90;;
38111;SDS011;64011;56.312;44.048;2023-02-15T08:24:39;21.48;;;10.90;;
38111;SDS011;64011;56.312;44.048;2023-02-15T08:26:41;24.08;;;11.05;;
38111;SDS011;64011;56.312;44.048;2023-02-15T08:28:42;21.83;;;12.18;;
38111;SDS011;64011;56.312;44.048;2023-02-15T08:30:44;20.25;;;11.18;;
38111;SDS011;64011;56.312;44.048;2023-02-15T08:32:44;21.25;;;11.40;;
38111;SDS011;64011;56.312;44.048;2023-02-15T08:34:45;19.67;;;10.55;;
38111;SDS011;64011;56.312;44.048;2023-02-15T08:36:46;21.95;;;11.40;;
38111;SDS011;64011;56.312;44.048;2023-02-15T08:38:47;20.13;;;11.27;;
38111;SDS011;64011;56.312;44.048;2023-02-15T08:40:48;31.10;;;16.40;;
38111;SDS011;64011;56.312;44.048;2023-02-15T08:42:49;20.67;;;10.57;;
38111;SDS011;64011;56.312;44.048;2023-02-15T08:44:49;24.08;;;10.90;;
38111;SDS011;64011;56.312;44.048;2023-02-15T08:46:51;19.15;;;10.05;;
38111;SDS011;64011;56.312;44.048;2023-02-15T08:48:52;20.58;;;10.68;;
38111;SDS011;64011;56.312;44.048;2023-02-15T08:50:53;20.50;;;11.07;;
38111;SDS011;64011;56.312;44.048;2023-02-15T08:52:54;20.25;;;11.00;;
38111;SDS011;64011;56.312;44.048;2023-02-15T08:54:56;19.25;;;10.30;;
38111;SDS011;64011;56.312;44.048;2023-02-15T08:56:56;19.92;;;11.38;;
38111;SDS011;64011;56.312;44.048;2023-02-15T08:58:57;18.83;;;10.40;;
38111;SDS011;64011;56.312;44.048;2023-02-15T09:00:58;18.27;;;10.32;;
38111;SDS011;64011;56.312;44.048;2023-02-15T09:03:00;18.25;;;9.68;;
38111;SDS011;64011;56.312;44.048;2023-02-15T09:05:02;19.40;;;11.10;;
38111;SDS011;64011;56.312;44.048;2023-02-15T09:07:03;19.50;;;10.43;;
38111;SDS011;64011;56.312;44.048;2023-02-15T09:09:04;19.23;;;10.90;;
38111;SDS011;64011;56.312;44.048;2023-02-15T09:11:06;17.83;;;10.00;;
38111;SDS011;64011;56.312;44.048;2023-02-15T09:13:08;18.52;;;9.60;;
38111;SDS011;64011;56.312;44.048;2023-02-15T09:15:09;18.92;;;10.20;;
38111;SDS011;64011;56.312;44.048;2023-02-15T09:17:10;18.83;;;10.02;;
38111;SDS011;64011;56.312;44.048;2023-02-15T09:19:12;19.58;;;10.85;;
38111;SDS011;64011;56.312;44.048;2023-02-15T09:21:13;19.27;;;10.00;;
38111;SDS011;64011;56.312;44.048;2023-02-15T09:23:15;17.98;;;9.82;;
38111;SDS011;64011;56.312;44.048;2023-02-15T09:25:15;18.77;;;9.60;;
38111;SDS011;64011;56.312;44.048;2023-02-15T09:27:16;18.35;;;9.52;;
38111;SDS011;64011;56.312;44.048;2023-02-15T09:29:17;18.42;;;9.40;;
38111;SDS011;64011;56.312;44.048;2023-02-15T09:31:19;18.33;;;9.70;;
38111;SDS011;64011;56.312;44.048;2023-02-15T09:33:20;17.15;;;9.43;;
38111;SDS011;64011;56.312;44.048;2023-02-15T09:35:23;18.45;;;8.70;;
38111;SDS011;64011;56.312;44.048;2023-02-15T09:37:23;17.63;;;9.23;;
38111;SDS011;64011;56.312;44.048;2023-02-15T09:39:24;17.38;;;9.05;;
38111;SDS011;64011;56.312;44.048;2023-02-15T09:44:01;18.52;;;9.90;;
38111;SDS011;64011;56.312;44.048;2023-02-15T09:46:15;18.88;;;10.07;;
38111;SDS011;64011;56.312;44.048;2023-02-15T09:48:29;19.17;;;9.30;;
38111;SDS011;64011;56.312;44.048;2023-02-15T09:50:43;18.77;;;9.55;;
38111;SDS011;64011;56.312;44.048;2023-02-15T09:52:57;18.50;;;9.70;;
38111;SDS011;64011;56.312;44.048;2023-02-15T09:55:27;19.50;;;9.52;;
38111;SDS011;64011;56.312;44.048;2023-02-15T09:57:35;19.58;;;9.05;;
38111;SDS011;64011;56.312;44.048;2023-02-15T09:59:40;16.75;;;9.00;;
38111;SDS011;64011;56.312;44.048;2023-02-15T10:01:48;17.77;;;8.90;;
38111;SDS011;64011;56.312;44.048;2023-02-15T10:03:57;18.83;;;9.13;;
38111;SDS011;64011;56.312;44.048;2023-02-15T10:06:20;17.73;;;8.55;;
38111;SDS011;64011;56.312;44.048;2023-02-15T10:08:38;18.65;;;9.40;;
38111;SDS011;64011;56.312;44.048;2023-02-15T10:10:47;18.75;;;9.00;;
38111;SDS011;64011;56.312;44.048;2023-02-15T10:12:53;20.73;;;9.23;;
38111;SDS011;64011;56.312;44.048;2023-02-15T10:15:15;17.33;;;8.13;;
38111;SDS011;64011;56.312;44.048;2023-02-15T10:17:25;18.27;;;7.97;;
38111;SDS011;64011;56.312;44.048;2023-02-15T10:19:32;19.90;;;8.93;;
38111;SDS011;64011;56.312;44.048;2023-02-15T10:21:42;17.67;;;8.23;;
38111;SDS011;64011;56.312;44.048;2023-02-15T10:23:55;18.13;;;8.63;;
38111;SDS011;64011;56.312;44.048;2023-02-15T10:26:04;16.65;;;7.60;;
38111;SDS011;64011;56.312;44.048;2023-02-15T10:28:09;20.38;;;8.73;;
38111;SDS011;64011;56.312;44.048;2023-02-15T10:30:13;17.70;;;8.18;;
38111;SDS011;64011;56.312;44.048;2023-02-15T10:32:16;16.95;;;8.00;;
38111;SDS011;64011;56.312;44.048;2023-02-15T10:34:22;17.95;;;8.60;;
38111;SDS011;64011;56.312;44.048;2023-02-15T10:36:29;17.52;;;9.10;;
38111;SDS011;64011;56.312;44.048;2023-02-15T10:38:38;17.48;;;8.32;;
38111;SDS011;64011;56.312;44.048;2023-02-15T10:40:44;18.58;;;9.18;;
38111;SDS011;64011;56.312;44.048;2023-02-15T10:43:12;18.40;;;9.15;;
38111;SDS011;64011;56.312;44.048;2023-02-15T10:45:20;17.67;;;9.32;;
38111;SDS011;64011;56.312;44.048;2023-02-15T10:49:54;19.25;;;10.10;;
38111;SDS011;64011;56.312;44.048;2023-02-15T10:52:09;18.67;;;8.85;;
38111;SDS011;64011;56.312;44.048;2023-02-15T10:54:23;19.67;;;8.95;;
38111;SDS011;64011;56.312;44.048;2023-02-15T10:56:30;18.13;;;8.98;;
38111;SDS011;64011;56.312;44.048;2023-02-15T10:58:38;17.55;;;8.73;;
38111;SDS011;64011;56.312;44.048;2023-02-15T11:00:46;17.50;;;8.43;;
38111;SDS011;64011;56.312;44.048;2023-02-15T11:02:55;16.00;;;8.05;;
38111;SDS011;64011;56.312;44.048;2023-02-15T11:05:24;18.00;;;8.02;;
38111;SDS011;64011;56.312;44.048;2023-02-15T11:07:32;18.92;;;8.07;;
38111;SDS011;64011;56.312;44.048;2023-02-15T11:09:38;18.50;;;8.38;;
38111;SDS011;64011;56.312;44.048;2023-02-15T11:11:49;17.08;;;7.85;;
38111;SDS011;64011;56.312;44.048;2023-02-15T11:13:51;17.60;;;8.20;;
38111;SDS011;64011;56.312;44.048;2023-02-15T11:15:55;18.27;;;9.18;;
38111;SDS011;64011;56.312;44.048;2023-02-15T11:17:58;17.90;;;8.43;;
38111;SDS011;64011;56.312;44.048;2023-02-15T11:20:04;18.05;;;8.45;;
38111;SDS011;64011;56.312;44.048;2023-02-15T11:22:09;17.92;;;8.70;;
38111;SDS011;64011;56.312;44.048;2023-02-15T11:24:10;18.02;;;8.27;;
38111;SDS011;64011;56.312;44.048;2023-02-15T11:26:15;17.55;;;8.25;;
38111;SDS011;64011;56.312;44.048;2023-02-15T11:28:21;18.85;;;8.65;;
38111;SDS011;64011;56.312;44.048;2023-02-15T11:30:24;18.35;;;8.48;;
38111;SDS011;64011;56.312;44.048;2023-02-15T11:32:29;17.25;;;8.10;;
38111;SDS011;64011;56.312;44.048;2023-02-15T11:34:34;20.17;;;9.85;;
38111;SDS011;64011;56.312;44.048;2023-02-15T11:36:37;17.52;;;8.02;;
38111;SDS011;64011;56.312;44.048;2023-02-15T11:38:38;17.48;;;8.73;;
38111;SDS011;64011;56.312;44.048;2023-02-15T11:40:41;17.50;;;8.25;;
38111;SDS011;64011;56.312;44.048;2023-02-15T11:42:48;17.90;;;7.90;;
38111;SDS011;64011;56.312;44.048;2023-02-15T11:44:52;17.35;;;8.15;;
38111;SDS011;64011;56.312;44.048;2023-02-15T11:46:57;16.33;;;7.32;;
38111;SDS011;64011;56.312;44.048;2023-02-15T11:48:58;17.20;;;7.65;;
38111;SDS011;64011;56.312;44.048;2023-02-15T11:50:58;16.75;;;7.65;;
38111;SDS011;64011;56.312;44.048;2023-02-15T11:53:01;17.77;;;8.70;;
38111;SDS011;64011;56.312;44.048;2023-02-15T11:55:09;17.48;;;7.68;;
38111;SDS011;64011;56.312;44.048;2023-02-15T11:57:14;16.38;;;7.30;;
38111;SDS011;64011;56.312;44.048;2023-02-15T11:59:21;16.58;;;7.20;;
38111;SDS011;64011;56.312;44.048;2023-02-15T12:01:29;16.33;;;7.18;;
38111;SDS011;64011;56.312;44.048;2023-02-15T12:03:34;16.85;;;7.07;;
38111;SDS011;64011;56.312;44.048;2023-02-15T12:05:44;16.13;;;7.10;;
38111;SDS011;64011;56.312;44.048;2023-02-15T12:07:47;16.98;;;7.72;;